Time;durP1;ratioP1;P1;durP2;ratioP2;P2;SDS_P1;SDS_P2;PMS_P1;PMS_P2;Temp;Humidity;BMP_temperature;BMP_pressure;BME280_temperature;BME280_humidity;BME280_pressure;Samples;Min_cycle;Max_cycle;Signal;HPM_P1;HPM_P2
2024/03/11 00:00:57;;;;;;;;;;;;;;;;;;5016533;28;20037;-55
2024/03/11 00:03:23;;;;;;;;;;;;;;;;;;5020113;28;19917;-55
2024/03/11 00:05:52;;;;;;;;;;;;;;;;;;5017910;28;19959;-55
2024/03/11 00:08:21;;;;;;;;;;;;;;;;;;5018768;28;20284;-54
2024/03/11 00:10:48;;;;;;;;;;;;;;;;;;5016086;28;19921;-53
2024/03/11 00:13:17;;;;;;;;;;;;;;;;;;5014534;28;19925;-54
2024/03/11 00:15:43;;;;;;;;;;;;;;;;;;5017069;28;19915;-54
2024/03/11 00:18:10;;;;;;;;;;;;;;;;;;5012225;28;20393;-54
2024/03/11 00:20:36;;;;;;;;;;;;;;;;;;5017541;28;20258;-54
2024/03/11 00:23:03;;;;;;;;;;;;;;;;;;5024573;28;19959;-55
2024/03/11 00:25:29;;;;;;;;;;;;;;;;;;5026028;28;20349;-55
2024/03/11 00:27:57;;;;;;;;;;;;;;;;;;5024396;28;20013;-54
2024/03/11 00:30:23;;;;;;;;;;;;;;;;;;5012712;28;19917;-54
2024/03/11 00:32:52;;;;;;;;;;;;;;;;;;5027275;28;19963;-54
2024/03/11 00:35:18;;;;;;;;;;;;;;;;;;5012344;28;19913;-54
2024/03/11 00:37:45;;;;;;;;;;;;;;;;;;5011425;28;19944;-53
2024/03/11 00:40:12;;;;;;;;;;;;;;;;;;5019400;28;19913;-56
2024/03/11 00:42:38;;;;;;;;;;;;;;;;;;5017568;28;20329;-57
2024/03/11 00:45:04;;;;;;;;;;;;;;;;;;5018470;28;19923;-56
2024/03/11 00:47:30;;;;;;;;;;;;;;;;;;5018038;28;20369;-56
2024/03/11 00:49:57;;;;;;;;;;;;;;;;;;5014579;28;19976;-57
2024/03/11 00:52:22;;;;;;;;;;;;;;;;;;5017117;28;19972;-57
2024/03/11 00:54:48;;;;;;;;;;;;;;;;;;5027034;28;20293;-57
2024/03/11 00:57:14;;;;;;;;;;;;;;;;;;5019442;28;20408;-57
2024/03/11 00:59:40;;;;;;;;;;;;;;;;;;5018150;28;20009;-57
2024/03/11 01:02:07;;;;;;;;;;;;;;;;;;5010984;28;20314;-58
2024/03/11 01:04:34;;;;;;;;;;;;;;;;;;5017015;28;20315;-58
2024/03/11 01:07:01;;;;;;;;;;;;;;;;;;5024543;28;19968;-58
2024/03/11 01:09:27;;;;;;;;;;;;;;;;;;5010786;28;20404;-58
2024/03/11 01:11:53;;;;;;;;;;;;;;;;;;5020078;28;20054;-59
2024/03/11 01:14:19;;;;;;;;;;;;;;;;;;5022656;28;19952;-59
2024/03/11 01:16:46;;;;;;;;;;;;;;;;;;5014226;28;19979;-59
2024/03/11 01:19:12;;;;;;;;;;;;;;;;;;5016472;28;19915;-59
2024/03/11 01:21:38;;;;;;;;;;;;;;;;;;5022186;28;20037;-58
2024/03/11 01:24:05;;;;;;;;;;;;;;;;;;5017597;28;19964;-59
2024/03/11 01:26:31;;;;;;;;;;;;;;;;;;5015787;28;20551;-59
2024/03/11 01:28:57;;;;;;;;;;;;;;;;;;5015500;28;20285;-60
2024/03/11 01:31:23;;;;;;;;;;;;;;;;;;5018181;28;19944;-60
2024/03/11 01:33:49;;;;;;;;;;;;;;;;;;5013145;28;19959;-60
2024/03/11 01:36:15;;;;;;;;;;;;;;;;;;5023742;28;19956;-60
2024/03/11 01:38:41;;;;;;;;;;;;;;;;;;5022881;28;19913;-58
2024/03/11 01:41:07;;;;;;;;;;;;;;;;;;5015801;28;19928;-59
2024/03/11 01:43:33;;;;;;;;;;;;;;;;;;5017410;28;19909;-58
2024/03/11 01:45:59;;;;;;;;;;;;;;;;;;5019656;28;19960;-58
2024/03/11 01:48:25;;;;;;;;;;;;;;;;;;5028052;28;19952;-59
2024/03/11 01:50:51;;;;;;;;;;;;;;;;;;5022655;28;19944;-58
2024/03/11 01:53:17;;;;;;;;;;;;;;;;;;5016979;28;19965;-58
2024/03/11 01:55:43;;;;;;;;;;;;;;;;;;5021370;28;19979;-58
2024/03/11 01:58:09;;;;;;;;;;;;;;;;;;5021336;28;20404;-59
2024/03/11 02:00:35;;;;;;;;;;;;;;;;;;5015479;28;19995;-57
2024/03/11 02:03:01;;;;;;;;;;;;;;;;;;5026203;28;19976;-58
2024/03/11 02:05:28;;;;;;;;;;;;;;;;;;5020202;28;20358;-58
2024/03/11 02:07:55;;;;;;;;;;;;;;;;;;5024220;28;19939;-59
2024/03/11 02:10:23;;;;;;;;;;;;;;;;;;5018877;28;20504;-59
2024/03/11 02:12:49;;;;;;;;;;;;;;;;;;5019969;28;19967;-59
2024/03/11 02:15:16;;;;;;;;;;;;;;;;;;5028241;28;19967;-59
2024/03/11 02:17:42;;;;;;;;;;;;;;;;;;5022894;28;19920;-59
2024/03/11 02:20:15;;;;;;;;;;;;;;;;;;5024177;28;20200;-59
2024/03/11 02:22:43;;;;;;;;;;;;;;;;;;5012995;28;19948;-59
2024/03/11 02:25:09;;;;;;;;;;;;;;;;;;5013014;28;19945;-59
2024/03/11 02:27:35;;;;;;;;;;;;;;;;;;5016800;28;19909;-59
2024/03/11 02:30:01;;;;;;;;;;;;;;;;;;5020126;28;19905;-59
2024/03/11 02:32:27;;;;;;;;;;;;;;;;;;5013880;28;21028;-59
2024/03/11 02:34:53;;;;;;;;;;;;;;;;;;5024566;28;20024;-59
2024/03/11 02:37:20;;;;;;;;;;;;;;;;;;5027455;28;20296;-59
2024/03/11 02:39:46;;;;;;;;;;;;;;;;;;5024929;28;20356;-59
2024/03/11 02:42:12;;;;;;;;;;;;;;;;;;5017858;28;19945;-58
2024/03/11 02:44:38;;;;;;;;;;;;;;;;;;5023235;28;19964;-58
2024/03/11 02:47:04;;;;;;;;;;;;;;;;;;5013695;28;20368;-59
2024/03/11 02:49:30;;;;;;;;;;;;;;;;;;5012212;28;19981;-59
2024/03/11 02:51:56;;;;;;;;;;;;;;;;;;5022110;28;20017;-59
2024/03/11 02:54:26;;;;;;;;;;;;;;;;;;5017363;28;19964;-58
2024/03/11 02:56:52;;;;;;;;;;;;;;;;;;5013578;28;19921;-59
2024/03/11 02:59:21;;;;;;;;;;;;;;;;;;5021647;28;19943;-59
2024/03/11 03:01:48;;;;;;;;;;;;;;;;;;5022417;28;19909;-55
2024/03/11 03:04:14;;;;;;;;;;;;;;;;;;5020236;28;19916;-54
2024/03/11 03:06:40;;;;;;;;;;;;;;;;;;5022126;28;19917;-54
2024/03/11 03:09:06;;;;;;;;;;;;;;;;;;5014088;28;20012;-55
2024/03/11 03:11:32;;;;;;;;;;;;;;;;;;5016177;28;20243;-56
2024/03/11 03:13:58;;;;;;;;;;;;;;;;;;5018586;28;19917;-55
2024/03/11 03:16:24;;;;;;;;;;;;;;;;;;5011363;28;20416;-53
2024/03/11 03:18:50;;;;;;;;;;;;;;;;;;5017370;28;20131;-54
2024/03/11 03:21:17;;;;;;;;;;;;;;;;;;5019821;28;19978;-57
2024/03/11 03:23:43;;;;;;;;;;;;;;;;;;5013273;28;19913;-55
2024/03/11 03:26:09;;;;;;;;;;;;;;;;;;5015899;28;19949;-54
2024/03/11 03:28:35;;;;;;;;;;;;;;;;;;5013491;28;19963;-54
2024/03/11 03:31:00;;;;;;;;;;;;;;;;;;5010180;28;20361;-53
2024/03/11 03:33:26;;;;;;;;;;;;;;;;;;5022985;28;20036;-53
2024/03/11 03:35:52;;;;;;;;;;;;;;;;;;5018727;28;19979;-56
2024/03/11 03:38:18;;;;;;;;;;;;;;;;;;5011176;28;19961;-53
2024/03/11 03:40:44;;;;;;;;;;;;;;;;;;5008417;28;20372;-54
2024/03/11 03:43:10;;;;;;;;;;;;;;;;;;5015485;28;19909;-55
2024/03/11 03:45:36;;;;;;;;;;;;;;;;;;5011640;28;20107;-55
2024/03/11 03:48:02;;;;;;;;;;;;;;;;;;5021098;28;19913;-54
2024/03/11 03:50:29;;;;;;;;;;;;;;;;;;5018069;28;19956;-55
2024/03/11 03:52:56;;;;;;;;;;;;;;;;;;5015067;28;20008;-54
2024/03/11 03:55:23;;;;;;;;;;;;;;;;;;5026102;28;20004;-53
2024/03/11 03:57:49;;;;;;;;;;;;;;;;;;5018072;28;20269;-54
2024/03/11 04:00:15;;;;;;;;;;;;;;;;;;5011857;28;19955;-53
2024/03/11 04:02:41;;;;;;;;;;;;;;;;;;5016953;28;20048;-54
2024/03/11 04:05:07;;;;;;;;;;;;;;;;;;5008725;28;19952;-54
2024/03/11 04:07:34;;;;;;;;;;;;;;;;;;5018384;28;19958;-55
2024/03/11 04:10:00;;;;;;;;;;;;;;;;;;5020090;28;20012;-55
2024/03/11 04:12:27;;;;;;;;;;;;;;;;;;5016132;28;20011;-60
2024/03/11 04:14:53;;;;;;;;;;;;;;;;;;5012842;28;19913;-61
2024/03/11 04:17:19;;;;;;;;;;;;;;;;;;5025433;28;20370;-60
2024/03/11 04:19:46;;;;;;;;;;;;;;;;;;5021153;28;19941;-60
2024/03/11 04:22:12;;;;;;;;;;;;;;;;;;5011787;28;19917;-61
2024/03/11 04:24:38;;;;;;;;;;;;;;;;;;5016196;28;20031;-59
2024/03/11 04:27:05;;;;;;;;;;;;;;;;;;5024104;28;20369;-60
2024/03/11 04:29:30;;;;;;;;;;;;;;;;;;5015910;28;20389;-61
2024/03/11 04:31:57;;;;;;;;;;;;;;;;;;5019526;28;19960;-61
2024/03/11 04:34:23;;;;;;;;;;;;;;;;;;5012827;28;19913;-60
2024/03/11 04:36:49;;;;;;;;;;;;;;;;;;5022275;28;19924;-60
2024/03/11 04:39:15;;;;;;;;;;;;;;;;;;5024193;28;19909;-60
2024/03/11 04:41:42;;;;;;;;;;;;;;;;;;5013728;28;20008;-60
2024/03/11 04:44:07;;;;;;;;;;;;;;;;;;5018116;28;19920;-59
2024/03/11 04:46:33;;;;;;;;;;;;;;;;;;5016497;28;19948;-59
2024/03/11 04:48:59;;;;;;;;;;;;;;;;;;5020791;28;20325;-61
2024/03/11 04:51:25;;;;;;;;;;;;;;;;;;5019319;28;20322;-61
2024/03/11 04:53:51;;;;;;;;;;;;;;;;;;5026590;28;20415;-61
2024/03/11 04:56:18;;;;;;;;;;;;;;;;;;5023925;28;19956;-60
2024/03/11 04:58:44;;;;;;;;;;;;;;;;;;5015027;28;20281;-61
2024/03/11 05:01:10;;;;;;;;;;;;;;;;;;5019604;28;19955;-60
2024/03/11 05:03:36;;;;;;;;;;;;;;;;;;5026896;28;19909;-60
2024/03/11 05:06:01;;;;;;;;;;;;;;;;;;5027105;28;20295;-60
2024/03/11 05:08:27;;;;;;;;;;;;;;;;;;5022857;28;19964;-61
2024/03/11 05:10:53;;;;;;;;;;;;;;;;;;5016282;28;20294;-61
2024/03/11 05:13:20;;;;;;;;;;;;;;;;;;5011940;28;19965;-59
2024/03/11 05:15:49;;;;;;;;;;;;;;;;;;5019360;28;19917;-61
2024/03/11 05:18:15;;;;;;;;;;;;;;;;;;5020856;28;20281;-61
2024/03/11 05:20:41;;;;;;;;;;;;;;;;;;5025768;28;20211;-60
2024/03/11 05:23:07;;;;;;;;;;;;;;;;;;5019774;28;19917;-56
2024/03/11 05:25:33;;;;;;;;;;;;;;;;;;5024627;28;19992;-55
2024/03/11 05:27:59;;;;;;;;;;;;;;;;;;5016823;28;20370;-56
2024/03/11 05:30:27;;;;;;;;;;;;;;;;;;5023620;28;19940;-55
2024/03/11 05:32:53;;;;;;;;;;;;;;;;;;5014121;28;20000;-57
2024/03/11 05:35:19;;;;;;;;;;;;;;;;;;5019199;28;20471;-57
2024/03/11 05:37:45;;;;;;;;;;;;;;;;;;5020799;28;20007;-57
2024/03/11 05:40:13;;;;;;;;;;;;;;;;;;5015800;28;19964;-56
2024/03/11 05:42:42;;;;;;;;;;;;;;;;;;5020992;28;19967;-56
2024/03/11 05:45:08;;;;;;;;;;;;;;;;;;5024573;28;19913;-55
2024/03/11 05:47:34;;;;;;;;;;;;;;;;;;5018190;28;19982;-56
2024/03/11 05:50:03;;;;;;;;;;;;;;;;;;5021095;28;19955;-56
2024/03/11 05:52:30;;;;;;;;;;;;;;;;;;5022069;28;20322;-55
2024/03/11 05:54:57;;;;;;;;;;;;;;;;;;5018019;28;19917;-55
2024/03/11 05:57:25;;;;;;;;;;;;;;;;;;5019050;28;19917;-55
2024/03/11 05:59:51;;;;;;;;;;;;;;;;;;5023241;28;20433;-55
2024/03/11 06:02:17;;;;;;;;;;;;;;;;;;5013224;28;19909;-55
2024/03/11 06:04:43;;;;;;;;;;;;;;;;;;5015769;28;20007;-55
2024/03/11 06:07:09;;;;;;;;;;;;;;;;;;5018668;28;20368;-55
2024/03/11 06:09:38;;;;;;;;;;;;;;;;;;5029435;28;19920;-55
2024/03/11 06:12:05;;;;;;;;;;;;;;;;;;5017983;28;19972;-55
2024/03/11 06:14:32;;;;;;;;;;;;;;;;;;5026513;28;19913;-55
2024/03/11 06:16:59;;;;;;;;;;;;;;;;;;5022476;28;20297;-55
2024/03/11 06:19:25;;;;;;;;;;;;;;;;;;5019011;28;19998;-55
2024/03/11 06:21:53;;;;;;;;;;;;;;;;;;5023194;28;19956;-55
2024/03/11 06:24:19;;;;;;;;;;;;;;;;;;5013279;28;20103;-55
2024/03/11 06:26:46;;;;;;;;;;;;;;;;;;5016921;28;19961;-55
2024/03/11 06:29:12;;;;;;;;;;;;;;;;;;5025096;28;20284;-54
2024/03/11 06:31:38;;;;;;;;;;;;;;;;;;5018030;28;20003;-59
2024/03/11 06:34:06;;;;;;;;;;;;;;;;;;5018481;28;20329;-58
2024/03/11 06:36:32;;;;;;;;;;;;;;;;;;5012071;28;20280;-58
2024/03/11 06:38:58;;;;;;;;;;;;;;;;;;5010968;28;20254;-59
2024/03/11 06:41:27;;;;;;;;;;;;;;;;;;5010067;28;19952;-59
2024/03/11 06:43:53;;;;;;;;;;;;;;;;;;5024010;28;19909;-58
2024/03/11 06:46:19;;;;;;;;;;;;;;;;;;5019744;28;19920;-58
2024/03/11 06:48:45;;;;;;;;;;;;;;;;;;5022941;28;20004;-59
2024/03/11 06:51:11;;;;;;;;;;;;;;;;;;5012488;28;20420;-58
2024/03/11 06:53:37;;;;;;;;;;;;;;;;;;5016813;28;19952;-59
2024/03/11 06:56:04;;;;;;;;;;;;;;;;;;5018356;28;19957;-59
2024/03/11 06:58:30;;;;;;;;;;;;;;;;;;5017579;28;20339;-59
2024/03/11 07:00:58;;;;;;;;;;;;;;;;;;5023384;28;19913;-57
2024/03/11 07:03:26;;;;;;;;;;;;;;;;;;5017970;28;20349;-59
2024/03/11 07:05:52;;;;;;;;;;;;;;;;;;5014018;28;20377;-59
2024/03/11 07:08:18;;;;;;;;;;;;;;;;;;5015748;28;19965;-59
2024/03/11 07:10:44;;;;;;;;;;;;;;;;;;5023514;28;19955;-58
2024/03/11 07:13:09;;;;;;;;;;;;;;;;;;5014344;28;20393;-59
2024/03/11 07:15:35;;;;;;;;;;;;;;;;;;5016780;28;19979;-58
2024/03/11 07:18:01;;;;;;;;;;;;;;;;;;5020777;28;19975;-58
2024/03/11 07:20:27;;;;;;;;;;;;;;;;;;5016637;28;19913;-58
2024/03/11 07:22:53;;;;;;;;;;;;;;;;;;5012339;28;19910;-58
2024/03/11 07:25:21;;;;;;;;;;;;;;;;;;5012097;28;21097;-58
2024/03/11 07:27:47;;;;;;;;;;;;;;;;;;5018233;28;19996;-56
2024/03/11 07:30:13;;;;;;;;;;;;;;;;;;5025931;28;20032;-58
2024/03/11 07:32:39;;;;;;;;;;;;;;;;;;5026039;28;20296;-59
2024/03/11 07:35:05;;;;;;;;;;;;;;;;;;5016936;28;20443;-58
2024/03/11 07:37:36;;;;;;;;;;;;;;;;;;5019806;28;19979;-59
2024/03/11 07:40:02;;;;;;;;;;;;;;;;;;5009434;28;19917;-59
2024/03/11 07:42:29;;;;;;;;;;;;;;;;;;5021749;28;19909;-59
2024/03/11 07:44:55;;;;;;;;;;;;;;;;;;5018707;28;19920;-60
2024/03/11 07:47:22;;;;;;;;;;;;;;;;;;5023958;28;20010;-59
2024/03/11 07:49:48;;;;;;;;;;;;;;;;;;5016972;28;19911;-57
2024/03/11 07:52:14;;;;;;;;;;;;;;;;;;5016308;28;19936;-56
2024/03/11 07:54:40;;;;;;;;;;;;;;;;;;5016406;28;19952;-59
2024/03/11 07:57:06;;;;;;;;;;;;;;;;;;5015871;28;19913;-58
2024/03/11 07:59:33;;;;;;;;;;;;;;;;;;5015789;28;19918;-58
2024/03/11 08:01:58;;;;;;;;;;;;;;;;;;5018585;28;20090;-59
2024/03/11 08:04:24;;;;;;;;;;;;;;;;;;5011740;28;20043;-59
2024/03/11 08:06:52;;;;;;;;;;;;;;;;;;5024886;28;19952;-59
2024/03/11 08:09:18;;;;;;;;;;;;;;;;;;5024917;28;20296;-59
2024/03/11 08:11:44;;;;;;;;;;;;;;;;;;5021962;28;20397;-59
2024/03/11 08:14:10;;;;;;;;;;;;;;;;;;5021584;28;20225;-58
2024/03/11 08:16:37;;;;;;;;;;;;;;;;;;5019846;28;20362;-59
2024/03/11 08:19:03;;;;;;;;;;;;;;;;;;5016672;28;19923;-58
2024/03/11 08:21:29;;;;;;;;;;;;;;;;;;5019759;28;20304;-59
2024/03/11 08:23:54;;;;;;;;;;;;;;;;;;5019489;28;19909;-59
2024/03/11 08:26:20;;;;;;;;;;;;;;;;;;5022445;28;20002;-59
2024/03/11 08:28:46;;;;;;;;;;;;;;;;;;5026901;28;20364;-60
2024/03/11 08:31:12;;;;;;;;;;;;;;;;;;5018338;28;20000;-58
2024/03/11 08:33:38;;;;;;;;;;;;;;;;;;5016109;28;19963;-59
2024/03/11 08:36:04;;;;;;;;;;;;;;;;;;5021097;28;20020;-59
2024/03/11 08:38:30;;;;;;;;;;;;;;;;;;5028778;28;19960;-58
2024/03/11 08:40:56;;;;;;;;;;;;;;;;;;5025838;28;20357;-59
2024/03/11 08:43:22;;;;;;;;;;;;;;;;;;5025239;28;19996;-60
2024/03/11 08:45:48;;;;;;;;;;;;;;;;;;5025163;28;19920;-60
2024/03/11 08:48:14;;;;;;;;;;;;;;;;;;5031426;28;19949;-59
2024/03/11 08:50:40;;;;;;;;;;;;;;;;;;5023886;28;20074;-60
2024/03/11 08:53:06;;;;;;;;;;;;;;;;;;5026540;28;20468;-58
2024/03/11 08:55:34;;;;;;;;;;;;;;;;;;5019833;28;19909;-57
2024/03/11 08:58:00;;;;;;;;;;;;;;;;;;5022281;28;19992;-58
2024/03/11 09:00:27;;;;;;;;;;;;;;;;;;5024068;28;19944;-57
2024/03/11 09:02:54;;;;;;;;;;;;;;;;;;5018473;28;20237;-57
2024/03/11 09:05:22;;;;;;;;;;;;;;;;;;5021179;28;20048;-58
2024/03/11 09:07:48;;;;;;;;;;;;;;;;;;5017650;28;19912;-57
2024/03/11 09:10:14;;;;;;;;;;;;;;;;;;5022852;28;20280;-57
2024/03/11 09:12:40;;;;;;;;;;;;;;;;;;5022133;28;19975;-57
2024/03/11 09:15:12;;;;;;;;;;;;;;;;;;5022469;28;19963;-58
2024/03/11 09:17:39;;;;;;;;;;;;;;;;;;5024557;28;20273;-57
2024/03/11 09:20:05;;;;;;;;;;;;;;;;;;5019922;28;19914;-58
2024/03/11 09:22:33;;;;;;;;;;;;;;;;;;5023167;28;19921;-58
2024/03/11 09:24:59;;;;;;;;;;;;;;;;;;5026646;28;19909;-57
2024/03/11 09:27:26;;;;;;;;;;;;;;;;;;5015585;28;19948;-58
2024/03/11 09:29:52;;;;;;;;;;;;;;;;;;5020078;28;20013;-58
2024/03/11 09:32:18;;;;;;;;;;;;;;;;;;5026386;28;19935;-57
2024/03/11 09:34:45;;;;;;;;;;;;;;;;;;5018974;28;20015;-57
2024/03/11 09:37:11;;;;;;;;;;;;;;;;;;5020612;28;19913;-57
2024/03/11 09:39:38;;;;;;;;;;;;;;;;;;5018784;28;19949;-56
2024/03/11 09:42:05;;;;;;;;;;;;;;;;;;5016260;28;19967;-58
2024/03/11 09:44:30;;;;;;;;;;;;;;;;;;5015477;28;19913;-57
2024/03/11 09:47:00;;;;;;;;;;;;;;;;;;5017917;28;20417;-58
2024/03/11 09:49:26;;;;;;;;;;;;;;;;;;5015321;28;19912;-58
2024/03/11 09:51:53;;;;;;;;;;;;;;;;;;5017707;28;20321;-58
2024/03/11 09:54:19;;;;;;;;;;;;;;;;;;5012466;28;19914;-57
2024/03/11 09:56:45;;;;;;;;;;;;;;;;;;5020658;28;20276;-58
2024/03/11 09:59:12;;;;;;;;;;;;;;;;;;5016266;28;19913;-56
2024/03/11 10:01:37;;;;;;;;;;;;;;;;;;5018451;28;19909;-57
2024/03/11 10:04:05;;;;;;;;;;;;;;;;;;5020414;28;19955;-54
2024/03/11 10:06:33;;;;;;;;;;;;;;;;;;5023012;28;20320;-54
2024/03/11 10:08:59;;;;;;;;;;;;;;;;;;5017797;28;20016;-53
2024/03/11 10:11:28;;;;;;;;;;;;;;;;;;5013746;28;20324;-53
2024/03/11 10:13:56;;;;;;;;;;;;;;;;;;5020255;28;19920;-54
2024/03/11 10:16:24;;;;;;;;;;;;;;;;;;5020091;28;19920;-53
2024/03/11 10:18:52;;;;;;;;;;;;;;;;;;5016857;28;20028;-53
2024/03/11 10:21:19;;;;;;;;;;;;;;;;;;5014107;28;225714;-54
2024/03/11 10:23:45;;;;;;;;;;;;;;;;;;5019135;28;20365;-54
2024/03/11 10:26:17;;;;;;;;;;;;;;;;;;5021025;28;19916;-55
2024/03/11 10:28:44;;;;;;;;;;;;;;;;;;5019922;28;19913;-54
2024/03/11 10:31:10;;;;;;;;;;;;;;;;;;5022071;28;19917;-55
2024/03/11 10:33:39;;;;;;;;;;;;;;;;;;5012857;28;19967;-54
2024/03/11 10:36:06;;;;;;;;;;;;;;;;;;5022131;28;19989;-54
2024/03/11 10:38:32;;;;;;;;;;;;;;;;;;5023750;28;19920;-54
2024/03/11 10:40:58;;;;;;;;;;;;;;;;;;5022547;28;19922;-53
2024/03/11 10:43:25;;;;;;;;;;;;;;;;;;5014322;28;19956;-53
2024/03/11 10:45:51;;;;;;;;;;;;;;;;;;5017740;28;20386;-53
2024/03/11 10:48:17;;;;;;;;;;;;;;;;;;5012092;28;19996;-54
2024/03/11 10:50:43;;;;;;;;;;;;;;;;;;5015208;28;20001;-54
2024/03/11 10:53:09;;;;;;;;;;;;;;;;;;5011047;28;19994;-55
2024/03/11 10:55:35;;;;;;;;;;;;;;;;;;5021031;28;19944;-54
2024/03/11 10:58:01;;;;;;;;;;;;;;;;;;5013577;28;19992;-53
2024/03/11 11:00:33;;;;;;;;;;;;;;;;;;5012575;28;19998;-54
2024/03/11 11:02:59;;;;;;;;;;;;;;;;;;5010634;28;20012;-54
2024/03/11 11:05:32;;;;;;;;;;;;;;;;;;5010841;28;20259;-55
2024/03/11 11:07:59;;;;;;;;;;;;;;;;;;5014901;28;19917;-56
2024/03/11 11:10:29;;;;;;;;;;;;;;;;;;5010243;28;19920;-54
2024/03/11 11:12:55;;;;;;;;;;;;;;;;;;5025131;28;20424;-56
2024/03/11 11:15:21;;;;;;;;;;;;;;;;;;5024591;28;19924;-54
2024/03/11 11:17:48;;;;;;;;;;;;;;;;;;5019788;28;20003;-55
2024/03/11 11:22:59;;;;;;;;;;;;;;;;;;5021967;28;20344;-55
2024/03/11 11:25:26;;;;;;;;;;;;;;;;;;5017666;28;19928;-55
2024/03/11 11:27:53;;;;;;;;;;;;;;;;;;5011777;28;19913;-54
2024/03/11 11:30:22;;;;;;;;;;;;;;;;;;5016059;28;19917;-55
2024/03/11 11:32:49;;;;;;;;;;;;;;;;;;5014396;28;19918;-54
2024/03/11 11:35:15;;;;;;;;;;;;;;;;;;5013330;28;20405;-54
2024/03/11 11:37:41;;;;;;;;;;;;;;;;;;5014604;28;19970;-55
2024/03/11 11:40:08;;;;;;;;;;;;;;;;;;5019591;28;19905;-55
2024/03/11 11:42:39;;;;;;;;;;;;;;;;;;5014716;28;19913;-54
2024/03/11 11:45:14;;;;;;;;;;;;;;;;;;5016675;28;20309;-54
2024/03/11 11:47:40;;;;;;;;;;;;;;;;;;5013765;28;20370;-54
2024/03/11 11:50:08;;;;;;;;;;;;;;;;;;5015096;28;19920;-56
2024/03/11 11:52:34;;;;;;;;;;;;;;;;;;5016904;28;19969;-54
2024/03/11 11:55:00;;;;;;;;;;;;;;;;;;5015945;28;19975;-56
2024/03/11 11:57:26;;;;;;;;;;;;;;;;;;5016203;28;20460;-55
2024/03/11 11:59:55;;;;;;;;;;;;;;;;;;5018427;28;19909;-54
2024/03/11 12:02:21;;;;;;;;;;;;;;;;;;5010146;28;20017;-57
2024/03/11 12:04:48;;;;;;;;;;;;;;;;;;5018446;28;20391;-55
2024/03/11 12:07:14;;;;;;;;;;;;;;;;;;5009361;28;19916;-55
2024/03/11 12:09:40;;;;;;;;;;;;;;;;;;5016191;28;19990;-55
2024/03/11 12:12:06;;;;;;;;;;;;;;;;;;5014001;28;20429;-55
2024/03/11 12:14:32;;;;;;;;;;;;;;;;;;5010080;28;19985;-56
2024/03/11 12:16:57;;;;;;;;;;;;;;;;;;5017014;28;20325;-55
2024/03/11 12:19:26;;;;;;;;;;;;;;;;;;5011276;28;19910;-56
2024/03/11 12:21:53;;;;;;;;;;;;;;;;;;5017157;28;20516;-56
2024/03/11 12:24:21;;;;;;;;;;;;;;;;;;5021303;28;20337;-59
2024/03/11 12:26:47;;;;;;;;;;;;;;;;;;5016101;28;19913;-58
2024/03/11 12:29:13;;;;;;;;;;;;;;;;;;5021176;28;19960;-58
2024/03/11 12:31:39;;;;;;;;;;;;;;;;;;5015749;28;19913;-59
2024/03/11 12:34:08;;;;;;;;;;;;;;;;;;5018244;28;19964;-59
2024/03/11 12:36:35;;;;;;;;;;;;;;;;;;5014557;28;19986;-59
2024/03/11 12:39:02;;;;;;;;;;;;;;;;;;5014067;28;19916;-60
2024/03/11 12:41:28;;;;;;;;;;;;;;;;;;5018808;28;20296;-59
2024/03/11 12:43:54;;;;;;;;;;;;;;;;;;5020209;28;19925;-58
2024/03/11 12:46:20;;;;;;;;;;;;;;;;;;5015491;28;20050;-60
2024/03/11 12:48:48;;;;;;;;;;;;;;;;;;5015650;28;19956;-59
2024/03/11 12:51:15;;;;;;;;;;;;;;;;;;5020372;28;19956;-59
2024/03/11 12:53:42;;;;;;;;;;;;;;;;;;5014624;28;20455;-59
2024/03/11 12:56:11;;;;;;;;;;;;;;;;;;5018172;28;19936;-60
2024/03/11 12:58:37;;;;;;;;;;;;;;;;;;5015822;28;20318;-58
2024/03/11 13:01:04;;;;;;;;;;;;;;;;;;5019964;28;20408;-58
2024/03/11 13:03:31;;;;;;;;;;;;;;;;;;5017587;28;19928;-58
2024/03/11 13:06:00;;;;;;;;;;;;;;;;;;5023780;28;19920;-59
2024/03/11 13:08:26;;;;;;;;;;;;;;;;;;5012037;28;19924;-59
2024/03/11 13:10:52;;;;;;;;;;;;;;;;;;5019170;28;20302;-58
2024/03/11 13:13:19;;;;;;;;;;;;;;;;;;5019870;28;19980;-59
2024/03/11 13:15:45;;;;;;;;;;;;;;;;;;5025890;28;19959;-58
2024/03/11 13:18:12;;;;;;;;;;;;;;;;;;5019888;28;20008;-58
2024/03/11 13:20:37;;;;;;;;;;;;;;;;;;5016431;28;20564;-59
2024/03/11 13:23:06;;;;;;;;;;;;;;;;;;5020123;28;20015;-59
2024/03/11 13:25:32;;;;;;;;;;;;;;;;;;5020621;28;19917;-58
2024/03/11 13:27:58;;;;;;;;;;;;;;;;;;5015487;28;19952;-58
2024/03/11 13:30:24;;;;;;;;;;;;;;;;;;5023872;28;19959;-59
2024/03/11 13:32:50;;;;;;;;;;;;;;;;;;5019855;28;19956;-58
2024/03/11 13:35:16;;;;;;;;;;;;;;;;;;5023406;28;20008;-57
2024/03/11 13:37:42;;;;;;;;;;;;;;;;;;5025315;28;19912;-59
2024/03/11 13:40:08;;;;;;;;;;;;;;;;;;5021646;28;20447;-59
2024/03/11 13:42:36;;;;;;;;;;;;;;;;;;5014754;28;19917;-59
2024/03/11 13:45:02;;;;;;;;;;;;;;;;;;5018280;28;19924;-57
2024/03/11 13:47:29;;;;;;;;;;;;;;;;;;5016964;28;19913;-58
2024/03/11 13:49:55;;;;;;;;;;;;;;;;;;5013689;28;19913;-59
2024/03/11 13:52:21;;;;;;;;;;;;;;;;;;5014477;28;20439;-59
2024/03/11 13:54:47;;;;;;;;;;;;;;;;;;5017433;28;19967;-58
2024/03/11 13:57:13;;;;;;;;;;;;;;;;;;5019018;28;19913;-57
2024/03/11 13:59:39;;;;;;;;;;;;;;;;;;5020637;28;19963;-58
2024/03/11 14:02:05;;;;;;;;;;;;;;;;;;5020403;28;19967;-59
2024/03/11 14:04:31;;;;;;;;;;;;;;;;;;5015782;28;19920;-58
2024/03/11 14:06:58;;;;;;;;;;;;;;;;;;5015214;28;19921;-58
2024/03/11 14:09:25;;;;;;;;;;;;;;;;;;5014273;28;19929;-58
2024/03/11 14:11:52;;;;;;;;;;;;;;;;;;5020023;28;20011;-58
2024/03/11 14:14:18;;;;;;;;;;;;;;;;;;5012145;28;19952;-58
2024/03/11 14:16:45;;;;;;;;;;;;;;;;;;5013600;28;20051;-58
2024/03/11 14:19:10;;;;;;;;;;;;;;;;;;5019377;28;20331;-58
2024/03/11 14:21:39;;;;;;;;;;;;;;;;;;5019808;28;19960;-59
2024/03/11 14:24:08;;;;;;;;;;;;;;;;;;5020209;28;19921;-59
2024/03/11 14:26:34;;;;;;;;;;;;;;;;;;5018950;28;19982;-58
2024/03/11 14:29:01;;;;;;;;;;;;;;;;;;5022077;28;19983;-59
2024/03/11 14:31:27;;;;;;;;;;;;;;;;;;5021510;28;20396;-59
2024/03/11 14:33:53;;;;;;;;;;;;;;;;;;5027411;28;20264;-59
2024/03/11 14:36:19;;;;;;;;;;;;;;;;;;5026284;28;20329;-58
2024/03/11 14:38:46;;;;;;;;;;;;;;;;;;5023346;28;19920;-58
2024/03/11 14:41:12;;;;;;;;;;;;;;;;;;5018391;28;19909;-59
2024/03/11 14:43:38;;;;;;;;;;;;;;;;;;5014174;28;19916;-53
2024/03/11 14:46:04;;;;;;;;;;;;;;;;;;5026953;28;19912;-55
2024/03/11 14:48:32;;;;;;;;;;;;;;;;;;5015905;28;20456;-54
2024/03/11 14:50:58;;;;;;;;;;;;;;;;;;5020831;28;19913;-53
2024/03/11 14:53:26;;;;;;;;;;;;;;;;;;5014708;28;19913;-53
2024/03/11 14:55:52;;;;;;;;;;;;;;;;;;5023707;28;20110;-54
2024/03/11 14:58:18;;;;;;;;;;;;;;;;;;5016873;28;19929;-53
2024/03/11 15:00:47;;;;;;;;;;;;;;;;;;5013085;28;19917;-54
2024/03/11 15:03:13;;;;;;;;;;;;;;;;;;5016777;28;20361;-53
2024/03/11 15:05:43;;;;;;;;;;;;;;;;;;5020957;28;20321;-54
2024/03/11 15:08:09;;;;;;;;;;;;;;;;;;5012069;28;20003;-54
2024/03/11 15:10:36;;;;;;;;;;;;;;;;;;5016949;28;19997;-55
2024/03/11 15:13:02;;;;;;;;;;;;;;;;;;5008416;28;20395;-53
2024/03/11 15:15:29;;;;;;;;;;;;;;;;;;5011210;28;20369;-53
2024/03/11 15:17:56;;;;;;;;;;;;;;;;;;5009957;28;20373;-54
2024/03/11 15:20:22;;;;;;;;;;;;;;;;;;5021366;28;19971;-53
2024/03/11 15:22:48;;;;;;;;;;;;;;;;;;5012160;28;19964;-53
2024/03/11 15:25:16;;;;;;;;;;;;;;;;;;5015642;28;19910;-54
2024/03/11 15:27:42;;;;;;;;;;;;;;;;;;5009052;28;19910;-53
2024/03/11 15:30:10;;;;;;;;;;;;;;;;;;5013644;28;20002;-57
2024/03/11 15:32:36;;;;;;;;;;;;;;;;;;5017395;28;19939;-53
2024/03/11 15:35:02;;;;;;;;;;;;;;;;;;5023947;28;19909;-53
2024/03/11 15:37:28;;;;;;;;;;;;;;;;;;5019865;28;19913;-53
2024/03/11 15:39:54;;;;;;;;;;;;;;;;;;5014148;28;19952;-54
2024/03/11 15:42:21;;;;;;;;;;;;;;;;;;5012898;28;19948;-54
2024/03/11 15:44:47;;;;;;;;;;;;;;;;;;5017693;28;20357;-53
2024/03/11 15:47:14;;;;;;;;;;;;;;;;;;5012937;28;19948;-53
2024/03/11 15:49:41;;;;;;;;;;;;;;;;;;5016098;28;20052;-54
2024/03/11 15:52:07;;;;;;;;;;;;;;;;;;5012563;28;19921;-54
2024/03/11 15:54:33;;;;;;;;;;;;;;;;;;5016053;28;19917;-56
2024/03/11 15:57:01;;;;;;;;;;;;;;;;;;5018097;28;19994;-56
2024/03/11 15:59:27;;;;;;;;;;;;;;;;;;5009812;28;19920;-56
2024/03/11 16:01:56;;;;;;;;;;;;;;;;;;5012876;28;19971;-56
2024/03/11 16:04:22;;;;;;;;;;;;;;;;;;5010611;28;19952;-56
2024/03/11 16:06:48;;;;;;;;;;;;;;;;;;5015113;28;19920;-56
2024/03/11 16:09:31;;;;;;;;;;;;;;;;;;5013396;28;19959;-55
2024/03/11 16:11:57;;;;;;;;;;;;;;;;;;5012253;28;19957;-56
2024/03/11 16:14:23;;;;;;;;;;;;;;;;;;5014541;28;19967;-56
2024/03/11 16:16:49;;;;;;;;;;;;;;;;;;5012518;28;20352;-55
2024/03/11 16:19:16;;;;;;;;;;;;;;;;;;5013794;28;20372;-56
2024/03/11 16:21:43;;;;;;;;;;;;;;;;;;5015329;28;19921;-56
2024/03/11 16:24:09;;;;;;;;;;;;;;;;;;5011864;28;19924;-56
2024/03/11 16:26:35;;;;;;;;;;;;;;;;;;5009740;28;19920;-55
2024/03/11 16:29:03;;;;;;;;;;;;;;;;;;5016461;28;19952;-55
2024/03/11 16:31:30;;;;;;;;;;;;;;;;;;5014254;28;19909;-56
2024/03/11 16:33:56;;;;;;;;;;;;;;;;;;5013164;28;20528;-56
2024/03/11 16:36:21;;;;;;;;;;;;;;;;;;5010174;28;20016;-55
2024/03/11 16:38:47;;;;;;;;;;;;;;;;;;5011804;28;20004;-56
2024/03/11 16:41:13;;;;;;;;;;;;;;;;;;5011332;28;20037;-56
2024/03/11 16:43:39;;;;;;;;;;;;;;;;;;5012692;28;20407;-56